• Join FlightAware (Why Join?)
  • Login
  • US Flag GB Flag 
21:03 EDT


 

Airport Tracker/Info


-or-


 

Live Flight TrackerFlight Track Log ✈ N601AA ✈ 11-Jun-2014 ✈ KGEG - KPHX

Flight Track Log - Related Links

Times and Time Zones

All times are in EDT time to prevent confusion due to time zone crossing. See the N601AA flight status page for this flight to view local times or setup timezone preferences in your user account.

Time Position Orientation Groundspeed Altitude Reporting Facility
EDT Latitude Longitude Course Direction KTS MPH feet Rate Location/Type
17:23 47.6478 -117.4972 77° East 198 228 4,600  Level Seattle Center
17:24 47.6642 -117.3942 77° East 275 316 8,200 3,240 Climbing Seattle Center
17:25 47.5861 -117.3339 152° Southeast 323 372 11,300 3,000 Climbing Seattle Center
17:26 47.4942 -117.2933 163° South 341 392 14,400 2,760 Climbing Seattle Center
17:27 47.3986 -117.2453 161° South 359 413 17,000 2,280 Climbing Seattle Center
17:28 47.2914 -117.1928 162° South 402 463 19,100 2,040 Climbing Seattle Center
17:29 47.1831 -117.1375 161° South 412 474 21,200 2,220 Climbing Seattle Center
17:30 47.0717 -117.0817 161° South 420 483 23,700 2,280 Climbing Seattle Center
17:31 46.9600 -117.0297 162° South 421 484 25,900 2,100 Climbing Seattle Center
17:32 46.8439 -116.9731 162° South 435 501 28,000 1,800 Climbing Seattle Center
17:33 46.7283 -116.9197 162° South 436 502 29,700 1,260 Climbing Seattle Center
17:34 46.6081 -116.8606 161° South 456 525 30,700 1,080 Climbing Seattle Center
17:35 46.4575 -116.7892 162° South 471 542 31,900 1,080 Climbing Seattle Center
17:36 46.3281 -116.7306 163° South 485 558 32,900 900 Climbing Seattle Center
17:37 46.1989 -116.6700 162° South 488 562 33,800 960 Climbing Seattle Center
17:38 46.0675 -116.6103 162° South 498 573 34,900 1,260 Climbing Seattle Center
17:39 45.9406 -116.5531 163° South 481 554 36,400 1,260 Climbing Seattle Center
17:40 45.8164 -116.4964 162° South 473 544 37,500 900 Climbing Seattle Center
17:41 45.6917 -116.4417 163° South 471 542 38,300 780 Climbing Seattle Center
17:42 45.5586 -116.3808 162° South 469 540 39,200 780 Climbing Seattle Center
17:43 45.4356 -116.3261 163° South 465 535 39,900 840 Climbing Seattle Center
17:44 45.3119 -116.2739 163° South 465 535 41,000 540 Climbing Seattle Center
17:45 45.2000 -116.2206 161° South 464 534 41,000  Level Seattle Center
17:46 45.0708 -116.1411 157° South 471 542 41,000  Level Seattle Center
17:47 44.9228 -116.0575 158° South 476 548 41,000  Level Seattle Center
17:48 44.7978 -115.9875 158° South 479 551 41,000  Level Seattle Center
17:49 44.6717 -115.9169 158° South 484 557 41,000  Level Seattle Center
17:50 44.5439 -115.8436 158° South 488 562 41,000  Level Seattle Center
17:52 44.4150 -115.7706 158° South 490 564 41,000  Level Seattle Center
17:53 44.2356 -115.6750 159° South 489 563 41,000  Level Salt Lake Center
17:54 44.1061 -115.6069 159° South 492 566 41,000  Level Salt Lake Center
17:55 43.9781 -115.5372 159° South 492 566 41,000  Level Salt Lake Center
17:56 43.8506 -115.4669 158° South 494 568 41,000  Level Salt Lake Center
17:57 43.7228 -115.3986 159° South 493 567 41,000  Level Salt Lake Center
17:58 43.5953 -115.3306 159° South 492 566 41,000  Level Salt Lake Center
17:59 43.4428 -115.2489 159° South 492 566 41,000  Level Salt Lake Center
18:00 43.3167 -115.1825 159° South 489 563 41,000  Level Salt Lake Center
18:01 43.1908 -115.1167 159° South 488 562 41,000  Level Salt Lake Center
18:02 43.0650 -115.0500 159° South 487 560 41,000  Level Salt Lake Center
18:03 42.9381 -114.9836 159° South 488 562 41,000  Level Salt Lake Center
18:04 42.8106 -114.9169 159° South 489 563 41,000  Level Salt Lake Center
18:05 42.6553 -114.8636 166° South 485 558 41,000  Level Salt Lake Center
18:06 42.5383 -114.8522 176° South 477 549 41,000  Level Salt Lake Center
18:07 42.3803 -114.8369 176° South 477 549 41,000  Level Salt Lake Center
18:08 42.2481 -114.8231 176° South 477 549 41,000  Level Salt Lake Center
18:09 42.1153 -114.8108 176° South 478 550 41,000  Level Salt Lake Center
18:10 41.9767 -114.7969 176° South 479 551 41,000  Level Salt Lake Center
18:12 41.8481 -114.7831 175° South 479 551 41,000  Level Salt Lake Center
18:13 41.7019 -114.7706 176° South 472 543 41,000  Level Salt Lake Center
18:14 41.5608 -114.7572 176° South 474 545 41,000  Level Salt Lake Center
18:15 41.4300 -114.7450 176° South 474 545 41,000  Level Salt Lake Center
18:16 41.3014 -114.7319 176° South 469 540 41,000  Level Salt Lake Center
18:17 41.1722 -114.7203 176° South 469 540 41,000  Level Salt Lake Center
18:18 41.0344 -114.7064 176° South 469 540 41,000  Level Salt Lake Center
18:19 40.8878 -114.6931 176° South 469 540 41,000  Level Salt Lake Center
18:20 40.7581 -114.6806 176° South 468 539 41,000  Level Salt Lake Center
18:21 40.6286 -114.6689 176° South 469 540 41,000  Level Salt Lake Center
18:22 40.4969 -114.6553 176° South 470 541 41,000  Level Salt Lake Center
18:23 40.3672 -114.6444 176° South 469 540 41,000  Level Salt Lake Center
18:24 40.2369 -114.6317 176° South 470 541 41,000  Level Salt Lake Center
18:25 40.0819 -114.6169 176° South 469 540 41,000  Level Salt Lake Center
18:26 39.9517 -114.6053 176° South 469 540 41,000  Level Salt Lake Center
18:27 39.8225 -114.5931 176° South 469 540 41,000  Level Salt Lake Center
18:28 39.6794 -114.5800 176° South 468 539 41,000  Level Salt Lake Center
18:29 39.5547 -114.5689 176° South 468 539 41,000  Level Salt Lake Center
18:30 39.4083 -114.5564 176° South 468 539 41,000  Level Salt Lake Center
18:31 39.2858 -114.5281 170° South 476 548 41,000  Level Salt Lake Center
18:32 39.1581 -114.4247 148° Southeast 491 565 41,000  Level Salt Lake Center
18:33 39.0442 -114.3294 147° Southeast 489 563 41,000  Level Salt Lake Center
18:34 38.9283 -114.2325 147° Southeast 495 570 41,000  Level Salt Lake Center
18:36 38.7217 -114.0569 146° Southeast 495 570 41,000  Level Los Angeles Center
18:37 38.6075 -113.9633 147° Southeast 494 568 41,000  Level Los Angeles Center
18:38 38.4469 -113.8292 147° Southeast 489 563 41,000  Level Salt Lake Center
18:39 38.3303 -113.7342 147° Southeast 499 574 41,000  Level Salt Lake Center
18:40 38.2142 -113.6386 147° Southeast 498 573 41,000  Level Salt Lake Center
18:42 38.0992 -113.5436 147° Southeast 498 573 41,000  Level Salt Lake Center
18:43 37.9825 -113.4475 147° Southeast 498 573 41,000  Level Salt Lake Center
18:44 37.8656 -113.3536 148° Southeast 498 573 41,000  Level Salt Lake Center
18:45 37.7147 -113.2744 157° South 497 572 41,000  Level Salt Lake Center
18:46 37.5903 -113.2097 158° South 493 567 41,000  Level Salt Lake Center
18:46 37.4922 -113.1533 155° Southeast 492 566 41,000 -180 Level Los Angeles Center
18:47 37.3689 -113.0842 156° South 493 567 40,700 -660 Descending Los Angeles Center
18:48 37.2422 -113.0156 157° South 495 570 39,700 -1,020 Descending Los Angeles Center
18:50 37.1136 -112.9453 156° South 504 580 38,700 -1,020 Descending Los Angeles Center
18:51 36.9592 -112.8608 156° South 505 581 37,600 -1,020 Descending Los Angeles Center
18:52 36.8306 -112.7897 156° South 506 582 36,600 -780 Descending Los Angeles Center
18:53 36.7003 -112.7197 157° South 507 583 36,000 -600 Descending Los Angeles Center
18:54 36.5733 -112.6511 157° South 504 580 35,400 -1,500 Descending Los Angeles Center
18:55 36.4436 -112.5808 156° South 504 580 33,000 -1,200 Descending Los Angeles Center
18:56 36.2906 -112.4981 156° South 501 577 33,000  Level Los Angeles Center
18:57 36.1647 -112.4344 158° South 494 568 33,000 -720 Level Los Angeles Center
18:58 36.0314 -112.3972 167° South 495 570 31,600 -1,920 Descending Los Angeles Center
18:59 35.8808 -112.4017 181° South 501 577 29,100 -1,260 Descending Los Angeles Center
19:00 35.7394 -112.4058 181° South 506 582 29,000 -60 Descending Los Angeles Center
19:01 35.6011 -112.4156 183° South 499 574 29,000  Level Los Angeles Center
19:02 35.4631 -112.4275 184° South 495 570 29,000  Level Los Angeles Center
19:03 35.3250 -112.4194 177° South 496 571 29,000  Level Los Angeles Center
19:04 35.2411 -112.4019 170° South 498 573 29,000  Level Albuquerque Center
19:05 35.1081 -112.3719 170° South 493 567 29,000 -840 Level Albuquerque Center
19:06 34.9844 -112.3467 170° South 470 541 27,300 -1,800 Descending Albuquerque Center
19:07 34.8636 -112.3222 171° South 447 514 25,300 -2,220 Descending Albuquerque Center
19:08 34.7297 -112.2928 170° South 422 486 22,800 -2,400 Descending Albuquerque Center
19:09 34.6189 -112.2683 170° South 410 472 20,500 -2,220 Descending Albuquerque Center
19:10 34.5117 -112.2444 170° South 400 460 18,300 -1,740 Descending Albuquerque Center
19:11 34.4114 -112.2211 169° South 378 435 17,000 -900 Descending Albuquerque Center
19:12 34.3214 -112.1975 168° South 345 397 16,500 -900 Descending Albuquerque Center
19:13 34.2306 -112.1742 168° South 338 389 15,200 -1,380 Descending Albuquerque Center
19:14 34.1211 -112.1469 168° South 337 388 13,700 -1,080 Descending Albuquerque Center
19:15 34.0317 -112.1242 168° South 335 386 13,000 -1,020 Descending Albuquerque Center
19:16 33.9517 -112.1031 168° South 303 349 11,700 -1,380 Descending Albuquerque Center
19:17 33.8736 -112.0825 168° South 294 338 10,200 -840 Descending Albuquerque Center
19:18 33.7969 -112.0642 169° South 287 330 10,000 -300 Descending Albuquerque Center
19:19 33.7192 -112.0461 169° South 286 329 9,700 -540 Descending Albuquerque Center
19:20 33.6228 -112.0311 173° South 290 334 9,000 -480 Descending Albuquerque Center
19:21 33.5539 -112.0064 163° South 261 300 8,800 -900 Descending Albuquerque Center
19:22 33.5247 -111.9322 115° Southeast 261 300 7,200 -900 Descending Albuquerque Center
19:23 33.5244 -111.8647 90° East 205 236 7,000 -600 Descending Albuquerque Center
19:24 33.5244 -111.7972 90° East 202 232 6,000 -1,020 Descending Albuquerque Center
19:25 33.4767 -111.7794 163° South 189 217 4,900 -1,020 Descending Albuquerque Center
19:26 33.4367 -111.8178 219° Southwest 171 197 4,000 -720 Descending Albuquerque Center
19:27 33.4319 -111.8681 264° West 160 184 3,500 -720 Descending Albuquerque Center
19:28 33.4308 -111.9156 268° West 146 168 2,600 -840 Descending Albuquerque Center
19:29 33.4333 -111.9667 273° West 133 153 1,800 -780 Descending Phoenix TRACON